Time;durP1;ratioP1;P1;durP2;ratioP2;P2;SDS_P1;SDS_P2;PMS_P1;PMS_P2;Temp;Humidity;BMP_temperature;BMP_pressure;BME280_temperature;BME280_humidity;BME280_pressure;Samples;Min_cycle;Max_cycle;Signal;HPM_P1;HPM_P2
2022/07/24 00:00:52;;;;;;;15.13;13.63;;;;;;;18.94;83.33;96450.81;2064847;28;20436;-38
2022/07/24 00:01:53;;;;;;;17.25;14.05;;;;;;;18.90;83.53;96441.47;2064595;28;20483;-39
2022/07/24 00:02:54;;;;;;;16.70;14.30;;;;;;;18.88;83.75;96446.84;2071237;23;20062;-45
2022/07/24 00:03:56;;;;;;;14.82;13.23;;;;;;;18.85;83.78;96454.13;2056726;28;20050;-40
2022/07/24 00:04:58;;;;;;;15.90;14.25;;;;;;;18.85;83.95;96454.13;2072588;28;20053;-44
2022/07/24 00:05:59;;;;;;;15.00;13.45;;;;;;;18.85;84.07;96451.50;2048712;28;20050;-44
2022/07/24 00:07:01;;;;;;;14.93;13.23;;;;;;;18.85;83.94;96454.97;2032899;29;20138;-42
2022/07/24 00:08:02;;;;;;;17.00;14.07;;;;;;;18.87;83.83;96460.09;2054373;28;20063;-42
2022/07/24 00:09:04;;;;;;;15.25;13.65;;;;;;;18.86;84.24;96448.72;2057787;28;20483;-42
2022/07/24 00:10:06;;;;;;;15.85;13.15;;;;;;;18.84;83.96;96455.06;2049507;28;20055;-40
2022/07/24 00:11:07;;;;;;;15.13;13.13;;;;;;;18.81;83.93;96458.75;2056806;28;20548;-40
2022/07/24 00:12:08;;;;;;;15.18;13.43;;;;;;;18.77;83.96;96459.13;2056549;28;20063;-41
2022/07/24 00:13:09;;;;;;;14.65;13.05;;;;;;;18.74;84.68;96457.50;2046534;28;20054;-45
2022/07/24 00:14:11;;;;;;;14.57;13.13;;;;;;;18.68;84.77;96456.16;2041454;29;20059;-40
2022/07/24 00:15:12;;;;;;;14.63;13.07;;;;;;;18.63;85.04;96460.06;2049095;29;20043;-42
2022/07/24 00:16:13;;;;;;;16.00;14.30;;;;;;;18.60;85.67;96457.66;2057110;28;20062;-41
2022/07/24 00:17:14;;;;;;;15.38;13.82;;;;;;;18.44;85.76;96450.88;2056484;28;20043;-39
2022/07/24 00:18:16;;;;;;;16.45;14.68;;;;;;;18.50;85.47;96463.59;2041681;28;20055;-43
2022/07/24 00:19:17;;;;;;;16.83;15.07;;;;;;;18.48;86.24;96464.63;2033532;29;20044;-42
2022/07/24 00:20:18;;;;;;;19.20;14.85;;;;;;;18.44;86.23;96465.78;2041145;29;20056;-41
2022/07/24 00:21:19;;;;;;;16.70;15.00;;;;;;;18.44;85.88;96460.53;2057383;28;20436;-40
2022/07/24 00:22:20;;;;;;;15.63;13.95;;;;;;;18.40;85.92;96470.44;2056296;28;20504;-41
2022/07/24 00:23:23;;;;;;;15.18;13.68;;;;;;;18.40;86.36;96465.19;2059553;28;20054;-44
2022/07/24 00:24:24;;;;;;;16.08;14.45;;;;;;;18.41;86.12;96469.47;2056933;28;20050;-43
2022/07/24 00:25:25;;;;;;;16.30;14.60;;;;;;;18.37;85.93;96456.69;2065114;28;20030;-38
2022/07/24 00:26:26;;;;;;;17.23;15.40;;;;;;;18.36;86.18;96462.88;2064946;28;20054;-42
2022/07/24 00:27:28;;;;;;;17.88;15.63;;;;;;;18.37;86.80;96470.66;2064831;28;20061;-42
2022/07/24 00:28:29;;;;;;;17.88;15.75;;;;;;;18.33;86.84;96455.19;2057739;28;20046;-40
2022/07/24 00:29:31;;;;;;;16.48;14.73;;;;;;;18.34;86.51;96464.78;2064609;28;20046;-42
2022/07/24 00:30:32;;;;;;;15.85;14.23;;;;;;;18.37;86.04;96462.78;2048940;29;20055;-40
2022/07/24 00:31:33;;;;;;;16.92;14.70;;;;;;;18.34;86.46;96462.16;2049125;28;20043;-41
2022/07/24 00:32:34;;;;;;;16.38;14.70;;;;;;;18.35;86.59;96456.78;2064432;28;20042;-44
2022/07/24 00:33:36;;;;;;;20.25;15.20;;;;;;;18.43;85.88;96462.34;2056640;28;20053;-41
2022/07/24 00:34:37;;;;;;;17.15;14.93;;;;;;;18.40;86.33;96459.09;2041022;29;20047;-38
2022/07/24 00:35:38;;;;;;;19.25;15.52;;;;;;;18.37;85.89;96459.31;2040894;28;20486;-40
2022/07/24 00:36:43;;;;;;;17.13;15.32;;;;;;;18.39;85.83;96466.16;2040876;29;20437;-41
2022/07/24 00:37:46;;;;;;;17.20;15.30;;;;;;;18.41;85.95;96468.66;2041990;28;20505;-41
2022/07/24 00:38:47;;;;;;;16.02;14.20;;;;;;;18.43;86.00;96464.13;2048941;28;20051;-41
2022/07/24 00:39:49;;;;;;;16.90;15.13;;;;;;;18.42;85.63;96465.91;2049072;28;20047;-43
2022/07/24 00:40:50;;;;;;;16.02;14.50;;;;;;;18.47;85.70;96462.94;2056544;28;20054;-40
2022/07/24 00:41:52;;;;;;;16.60;14.73;;;;;;;18.42;85.81;96451.94;2055980;28;20042;-43
2022/07/24 00:42:54;;;;;;;16.85;13.45;;;;;;;18.55;85.62;96463.25;2056510;28;20425;-40
2022/07/24 00:44:00;;;;;;;15.77;14.10;;;;;;;18.62;85.11;96461.84;2056215;28;20412;-42
2022/07/24 00:45:01;;;;;;;15.25;13.45;;;;;;;18.68;84.65;96466.69;2056945;28;20046;-40
2022/07/24 00:46:02;;;;;;;18.08;14.18;;;;;;;18.71;84.12;96455.06;2056765;28;20501;-39
2022/07/24 00:47:04;;;;;;;15.25;13.40;;;;;;;18.75;83.50;96456.56;2063828;28;20056;-41
2022/07/24 00:48:06;;;;;;;17.50;13.90;;;;;;;18.78;83.38;96453.72;2048382;29;20047;-44
2022/07/24 00:49:09;;;;;;;15.82;13.95;;;;;;;18.78;84.01;96450.25;2033269;29;20107;-44
2022/07/24 00:50:10;;;;;;;18.05;14.27;;;;;;;18.76;83.31;96460.88;2049181;28;20055;-41
2022/07/24 00:51:11;;;;;;;15.00;13.18;;;;;;;18.76;83.62;96452.16;2048469;29;20529;-42
2022/07/24 00:52:12;;;;;;;15.85;13.45;;;;;;;18.76;84.07;96454.78;2040207;29;20391;-41
2022/07/24 00:53:14;;;;;;;14.07;12.68;;;;;;;18.77;83.44;96454.69;2041141;29;20058;-43
2022/07/24 00:54:15;;;;;;;14.45;13.05;;;;;;;18.79;83.43;96451.94;2056513;28;20061;-37
2022/07/24 00:55:16;;;;;;;14.32;12.85;;;;;;;18.76;83.15;96460.03;2056278;28;20046;-42
2022/07/24 00:56:18;;;;;;;14.43;12.98;;;;;;;18.73;82.96;96453.19;2040654;29;20121;-42
2022/07/24 00:57:19;;;;;;;15.48;13.32;;;;;;;18.68;83.43;96450.91;2040651;28;20461;-40
2022/07/24 00:58:21;;;;;;;15.73;14.18;;;;;;;18.60;84.10;96450.59;2056311;28;20057;-38
2022/07/24 00:59:22;;;;;;;15.18;13.57;;;;;;;18.58;84.08;96449.03;2032676;29;20055;-42
2022/07/24 01:00:23;;;;;;;15.23;13.18;;;;;;;18.59;84.12;96455.97;2033036;29;20052;-41
2022/07/24 01:01:25;;;;;;;15.80;13.63;;;;;;;18.57;84.34;96456.06;2040745;28;20047;-41
2022/07/24 01:02:26;;;;;;;14.63;13.25;;;;;;;18.53;84.35;96452.00;2048466;29;20054;-44
2022/07/24 01:03:27;;;;;;;14.73;13.23;;;;;;;18.54;84.85;96458.09;2033378;29;20419;-40
2022/07/24 01:04:28;;;;;;;15.82;13.63;;;;;;;18.54;84.38;96458.94;2048349;28;20050;-42
2022/07/24 01:05:29;;;;;;;15.65;14.05;;;;;;;18.50;85.10;96465.38;2056317;28;20505;-41
2022/07/24 01:06:31;;;;;;;16.85;14.43;;;;;;;18.38;85.45;96458.34;2056600;28;20047;-41
2022/07/24 01:07:32;;;;;;;17.00;15.10;;;;;;;18.30;86.56;96461.53;2064025;28;20057;-44
2022/07/24 01:08:34;;;;;;;16.50;14.95;;;;;;;18.26;87.65;96462.69;2064776;28;20417;-40
2022/07/24 01:09:35;;;;;;;18.02;15.25;;;;;;;18.24;87.91;96461.97;2048567;29;20043;-39
2022/07/24 01:10:36;;;;;;;16.23;14.50;;;;;;;18.19;87.88;96458.81;2040569;29;20051;-41
2022/07/24 01:11:38;;;;;;;17.73;15.98;;;;;;;18.17;88.54;96455.44;2033061;29;20052;-40
2022/07/24 01:12:39;;;;;;;16.60;14.93;;;;;;;18.16;88.47;96453.78;2040416;28;20055;-39
2022/07/24 01:13:40;;;;;;;17.77;15.88;;;;;;;18.13;88.60;96465.34;2063926;28;20057;-43
2022/07/24 01:14:41;;;;;;;17.88;16.08;;;;;;;18.09;88.92;96458.59;2056102;28;20046;-42
2022/07/24 01:15:43;;;;;;;18.05;15.50;;;;;;;18.06;88.39;96454.41;2040341;29;20059;-40
2022/07/24 01:16:44;;;;;;;17.15;15.43;;;;;;;18.05;88.20;96459.78;2032937;29;20051;-42
2022/07/24 01:17:45;;;;;;;17.70;15.80;;;;;;;18.01;88.25;96453.03;2048100;28;20149;-41
2022/07/24 01:18:46;;;;;;;17.25;15.43;;;;;;;17.98;88.57;96455.88;2056183;28;20043;-44
2022/07/24 01:19:47;;;;;;;17.67;15.90;;;;;;;17.95;88.64;96450.84;2047949;28;20058;-39
2022/07/24 01:20:50;;;;;;;16.90;15.10;;;;;;;17.95;88.96;96456.09;2040277;29;20047;-42
2022/07/24 01:21:51;;;;;;;18.00;16.15;;;;;;;17.94;88.90;96457.06;2047926;28;20066;-42
2022/07/24 01:22:53;;;;;;;17.42;15.55;;;;;;;17.94;89.58;96454.44;2064385;28;20065;-42
2022/07/24 01:23:54;;;;;;;18.27;16.48;;;;;;;17.91;89.51;96457.25;2056652;28;20051;-40
2022/07/24 01:24:55;;;;;;;17.80;15.95;;;;;;;17.91;89.34;96452.00;2033205;29;20052;-41
2022/07/24 01:25:57;;;;;;;18.67;16.73;;;;;;;17.91;89.52;96458.13;2048591;28;20417;-41
2022/07/24 01:26:58;;;;;;;17.83;16.02;;;;;;;17.89;89.29;96454.75;2055817;28;20061;-41
2022/07/24 01:27:59;;;;;;;17.85;15.93;;;;;;;17.88;89.11;96449.59;2048257;28;20058;-42
2022/07/24 01:29:00;;;;;;;18.60;16.83;;;;;;;17.84;89.82;96457.69;2047993;29;20433;-41
2022/07/24 01:30:01;;;;;;;18.65;16.75;;;;;;;17.83;89.92;96456.03;2055848;28;20046;-42
2022/07/24 01:31:03;;;;;;;18.42;16.45;;;;;;;17.82;90.32;96454.31;2056534;28;20058;-40
2022/07/24 01:32:04;;;;;;;18.48;16.52;;;;;;;17.83;90.62;96453.38;2056235;28;20098;-40
2022/07/24 01:33:06;;;;;;;19.73;16.73;;;;;;;17.85;90.22;96448.00;2056192;28;20557;-43
2022/07/24 01:34:07;;;;;;;17.60;15.80;;;;;;;17.84;90.64;96447.19;2056481;28;20455;-43
2022/07/24 01:35:08;;;;;;;20.02;17.13;;;;;;;17.83;90.35;96448.13;2064028;28;20065;-41
2022/07/24 01:36:09;;;;;;;18.85;16.88;;;;;;;17.83;90.21;96447.31;2056560;28;20053;-43
2022/07/24 01:37:11;;;;;;;18.10;16.33;;;;;;;17.80;89.99;96450.13;2048686;28;20050;-41
2022/07/24 01:38:14;;;;;;;19.13;17.02;;;;;;;17.75;89.51;96446.94;2040119;29;20453;-41
2022/07/24 01:39:16;;;;;;;19.02;17.13;;;;;;;17.71;89.99;96440.22;2041290;28;20051;-42
2022/07/24 01:40:17;;;;;;;20.33;17.42;;;;;;;17.69;90.24;96444.72;2056575;28;20410;-41
2022/07/24 01:41:18;;;;;;;18.55;16.38;;;;;;;17.69;90.92;96450.81;2056092;28;20054;-42
2022/07/24 01:42:20;;;;;;;18.00;16.25;;;;;;;17.69;90.32;96447.34;2040505;29;20048;-40
2022/07/24 01:43:21;;;;;;;19.65;17.58;;;;;;;17.70;90.79;96447.28;2048314;28;20047;-43
2022/07/24 01:44:23;;;;;;;19.00;17.00;;;;;;;17.69;90.29;96444.72;2064629;28;20053;-42
2022/07/24 01:45:24;;;;;;;20.13;17.65;;;;;;;17.70;90.57;96449.91;2056273;28;20508;-41
2022/07/24 01:46:25;;;;;;;19.38;17.42;;;;;;;17.69;90.39;96456.06;2056604;28;20296;-42
2022/07/24 01:47:27;;;;;;;19.63;17.63;;;;;;;17.72;91.08;96448.00;2048378;28;20047;-41
2022/07/24 01:48:28;;;;;;;18.92;17.13;;;;;;;17.73;90.24;96449.69;2055319;28;20043;-42
2022/07/24 01:49:29;;;;;;;19.35;17.27;;;;;;;17.71;90.36;96451.56;2063625;28;20053;-41
2022/07/24 01:50:31;;;;;;;20.80;18.60;;;;;;;17.70;91.34;96447.28;2056131;28;20054;-41
2022/07/24 01:51:32;;;;;;;21.20;18.98;;;;;;;17.70;90.89;96449.91;2047731;28;20140;-44
2022/07/24 01:52:33;;;;;;;20.52;17.58;;;;;;;17.71;90.64;96445.47;2047987;28;20529;-41
2022/07/24 01:53:34;;;;;;;21.25;19.05;;;;;;;17.72;90.33;96442.75;2055522;28;20051;-43
2022/07/24 01:54:36;;;;;;;20.20;18.08;;;;;;;17.73;90.25;96447.06;2064395;28;20046;-40
2022/07/24 01:55:37;;;;;;;18.90;17.02;;;;;;;17.72;90.65;96447.16;2064254;28;20057;-38
2022/07/24 01:56:38;;;;;;;21.15;18.85;;;;;;;17.75;90.84;96445.16;2056256;28;20046;-41
2022/07/24 01:57:39;;;;;;;20.70;18.42;;;;;;;17.77;90.73;96445.88;2056149;28;20426;-41
2022/07/24 01:58:41;;;;;;;20.85;18.48;;;;;;;17.74;91.36;96446.09;2063448;28;20073;-41
2022/07/24 01:59:42;;;;;;;20.60;18.35;;;;;;;17.71;90.76;96443.69;2063913;28;20050;-42
2022/07/24 02:00:43;;;;;;;19.40;17.55;;;;;;;17.73;90.28;96439.16;2055937;28;20047;-39
2022/07/24 02:01:44;;;;;;;20.23;18.20;;;;;;;17.71;91.10;96443.69;2048197;28;20058;-45
2022/07/24 02:02:46;;;;;;;19.35;17.20;;;;;;;17.73;90.98;96447.06;2048047;29;20051;-42
2022/07/24 02:03:48;;;;;;;20.08;17.90;;;;;;;17.71;90.83;96437.59;2055559;28;20429;-40
2022/07/24 02:04:49;;;;;;;20.75;18.65;;;;;;;17.63;90.62;96440.75;2056388;28;20503;-41
2022/07/24 02:05:50;;;;;;;21.23;18.65;;;;;;;17.60;91.26;96444.41;2048546;28;20055;-41
2022/07/24 02:06:51;;;;;;;20.95;18.85;;;;;;;17.57;91.45;96439.38;2048202;29;20047;-41
2022/07/24 02:07:56;;;;;;;20.35;18.33;;;;;;;17.57;91.07;96446.41;2039894;29;20051;-44
2022/07/24 02:08:57;;;;;;;21.05;18.80;;;;;;;17.53;91.89;96451.03;2048060;28;20050;-39
2022/07/24 02:09:59;;;;;;;19.90;17.88;;;;;;;17.52;91.76;96451.16;2047939;29;20470;-45
2022/07/24 02:11:00;;;;;;;20.52;18.52;;;;;;;17.51;92.16;96441.56;2056306;28;20051;-42
2022/07/24 02:12:01;;;;;;;21.20;19.02;;;;;;;17.47;92.24;96447.97;2063644;28;20046;-43
2022/07/24 02:13:03;;;;;;;26.15;19.60;;;;;;;17.42;92.19;96446.50;2055779;28;20051;-41
2022/07/24 02:14:04;;;;;;;23.02;20.48;;;;;;;17.40;92.14;96448.41;2055985;28;20046;-42
2022/07/24 02:15:06;;;;;;;21.67;19.48;;;;;;;17.40;91.69;96445.78;2048222;28;20047;-42
2022/07/24 02:16:07;;;;;;;21.73;19.55;;;;;;;17.39;91.80;96451.13;2047913;28;20433;-45
2022/07/24 02:17:08;;;;;;;21.42;19.23;;;;;;;17.35;91.39;96453.13;2064045;28;20046;-40
2022/07/24 02:18:09;;;;;;;21.65;19.50;;;;;;;17.34;91.35;96451.41;2056028;28;20047;-42
2022/07/24 02:19:11;;;;;;;22.92;20.48;;;;;;;17.31;91.87;96451.63;2048082;28;20047;-41
2022/07/24 02:20:12;;;;;;;25.52;20.48;;;;;;;17.33;91.42;96449.75;2064294;28;20042;-40
2022/07/24 02:21:13;;;;;;;23.42;20.88;;;;;;;17.30;91.37;96457.84;2063723;28;20491;-41
2022/07/24 02:22:15;;;;;;;22.75;20.45;;;;;;;17.30;91.69;96455.22;2055804;28;20054;-40
2022/07/24 02:23:17;;;;;;;24.27;21.60;;;;;;;17.24;91.48;96460.88;2055760;28;20051;-44
2022/07/24 02:24:18;;;;;;;25.45;22.42;;;;;;;17.17;91.77;96459.59;2056092;28;20102;-41
2022/07/24 02:25:20;;;;;;;24.70;22.27;;;;;;;17.09;92.41;96461.88;2056028;28;20046;-41
2022/07/24 02:26:21;;;;;;;25.98;23.30;;;;;;;17.03;92.20;96457.88;2064346;28;20050;-40
2022/07/24 02:27:22;;;;;;;26.45;23.65;;;;;;;17.04;92.41;96458.72;2063867;28;20046;-41
2022/07/24 02:28:23;;;;;;;25.75;23.05;;;;;;;16.98;92.55;96460.81;2063186;28;20042;-43
2022/07/24 02:29:25;;;;;;;26.52;23.25;;;;;;;16.97;92.56;96463.50;2055832;28;20443;-41
2022/07/24 02:30:26;;;;;;;25.45;22.77;;;;;;;16.96;92.53;96461.84;2055813;28;20046;-41
2022/07/24 02:31:27;;;;;;;26.25;23.30;;;;;;;16.97;92.94;96464.38;2048355;28;20055;-41
2022/07/24 02:32:29;;;;;;;26.40;23.58;;;;;;;16.95;92.97;96460.16;2040659;28;20524;-42
2022/07/24 02:33:30;;;;;;;24.88;21.77;;;;;;;16.95;93.31;96462.78;2056048;28;20034;-43
2022/07/24 02:34:31;;;;;;;24.83;22.15;;;;;;;16.92;93.57;96462.97;2040149;29;20055;-38
2022/07/24 02:35:32;;;;;;;25.20;22.48;;;;;;;16.92;93.12;96465.59;2039977;28;20434;-42
2022/07/24 02:36:33;;;;;;;24.95;22.27;;;;;;;16.91;93.89;96463.91;2048077;29;20051;-41
2022/07/24 02:37:36;;;;;;;24.30;21.80;;;;;;;16.87;94.10;96458.03;2047773;29;20518;-42
2022/07/24 02:38:38;;;;;;;25.73;22.92;;;;;;;16.87;93.78;96462.47;2048739;28;20087;-42
2022/07/24 02:39:39;;;;;;;26.20;23.48;;;;;;;16.85;93.94;96464.31;2055693;28;20440;-40
2022/07/24 02:40:40;;;;;;;24.33;21.73;;;;;;;16.88;93.34;96464.97;2048238;29;20062;-42
2022/07/24 02:41:42;;;;;;;26.50;23.63;;;;;;;16.81;93.97;96463.66;2048164;28;20051;-42
2022/07/24 02:42:43;;;;;;;26.58;23.85;;;;;;;16.75;94.63;96461.41;2055918;28;20054;-41
2022/07/24 02:43:44;;;;;;;26.48;23.65;;;;;;;16.71;95.08;96462.56;2039475;29;20063;-42
2022/07/24 02:44:46;;;;;;;28.00;25.10;;;;;;;16.70;95.09;96463.50;2055896;28;20062;-42
2022/07/24 02:45:47;;;;;;;27.60;24.67;;;;;;;16.68;94.77;96458.34;2063983;28;20050;-42
2022/07/24 02:46:48;;;;;;;27.10;24.25;;;;;;;16.68;94.91;96462.75;2056421;28;20711;-40
2022/07/24 02:47:51;;;;;;;27.00;23.35;;;;;;;16.71;95.31;96460.78;2040404;29;20056;-41
2022/07/24 02:48:52;;;;;;;26.25;23.42;;;;;;;16.74;95.32;96459.75;2032802;29;20059;-40
2022/07/24 02:49:53;;;;;;;24.85;22.25;;;;;;;16.75;94.33;96458.78;2048022;28;20449;-42
2022/07/24 02:50:54;;;;;;;27.65;24.67;;;;;;;16.71;94.54;96455.53;2048234;29;20433;-45
2022/07/24 02:51:56;;;;;;;28.30;23.92;;;;;;;16.68;94.51;96460.13;2039546;29;20051;-38
2022/07/24 02:52:57;;;;;;;27.08;24.15;;;;;;;16.65;95.14;96458.56;2040281;29;20044;-42
2022/07/24 02:53:58;;;;;;;23.45;21.05;;;;;;;16.70;94.90;96461.69;2047490;29;20163;-41
2022/07/24 02:54:59;;;;;;;26.15;22.58;;;;;;;16.70;94.98;96453.84;2047817;29;20062;-41
2022/07/24 02:56:00;;;;;;;25.13;22.52;;;;;;;16.71;95.59;96462.56;2055889;28;20050;-40
2022/07/24 02:57:02;;;;;;;26.73;23.48;;;;;;;16.69;94.88;96454.78;2056012;28;20058;-40
2022/07/24 02:58:03;;;;;;;28.88;23.67;;;;;;;16.65;94.70;96453.31;2032563;29;20173;-41
2022/07/24 02:59:04;;;;;;;25.45;22.88;;;;;;;16.63;94.74;96449.09;2040146;28;20548;-42
2022/07/24 03:00:08;;;;;;;25.55;22.38;;;;;;;16.63;95.36;96451.72;2039698;29;20056;-40
2022/07/24 03:01:09;;;;;;;24.35;21.85;;;;;;;16.64;95.05;96449.00;2033203;29;20056;-42
2022/07/24 03:02:11;;;;;;;25.05;22.55;;;;;;;16.62;95.66;96453.50;2048837;28;20043;-41
2022/07/24 03:03:12;;;;;;;26.92;24.13;;;;;;;16.54;95.42;96456.63;2055573;28;20058;-42
2022/07/24 03:04:13;;;;;;;26.90;23.92;;;;;;;16.44;95.36;96460.75;2063867;28;20054;-44
2022/07/24 03:05:14;;;;;;;31.45;25.48;;;;;;;16.47;96.21;96464.97;2056942;28;20050;-39
2022/07/24 03:06:16;;;;;;;28.25;25.10;;;;;;;16.44;95.90;96463.38;2049918;28;20055;-41
2022/07/24 03:07:17;;;;;;;29.42;25.77;;;;;;;16.41;96.28;96466.22;2057379;28;20069;-41
2022/07/24 03:08:19;;;;;;;30.73;26.83;;;;;;;16.39;96.08;96462.84;2049996;28;20051;-41
2022/07/24 03:09:20;;;;;;;30.38;25.58;;;;;;;16.39;96.14;96464.63;2041618;29;20078;-39
2022/07/24 03:10:21;;;;;;;28.00;24.90;;;;;;;16.38;95.42;96463.75;2041684;29;20066;-43
2022/07/24 03:11:23;;;;;;;28.38;25.33;;;;;;;16.40;95.83;96472.38;2049773;28;20479;-41
2022/07/24 03:12:24;;;;;;;26.63;23.58;;;;;;;16.40;96.34;96467.13;2056693;28;20431;-43
2022/07/24 03:13:25;;;;;;;29.23;26.13;;;;;;;16.40;96.29;96461.88;2057567;28;20039;-42
2022/07/24 03:14:26;;;;;;;28.77;25.77;;;;;;;16.38;96.13;96466.38;2049596;28;20050;-40
2022/07/24 03:15:28;;;;;;;29.58;26.15;;;;;;;16.39;96.93;96464.63;2049194;28;20063;-43
2022/07/24 03:16:29;;;;;;;28.02;24.38;;;;;;;16.37;96.97;96459.47;2057390;28;20042;-41
2022/07/24 03:17:30;;;;;;;28.52;24.98;;;;;;;16.37;96.27;96463.88;2049456;28;20055;-42
2022/07/24 03:18:32;;;;;;;28.25;24.33;;;;;;;16.36;96.29;96460.41;2065206;28;20042;-44
2022/07/24 03:19:33;;;;;;;28.52;25.15;;;;;;;16.36;96.44;96456.91;2064673;28;20050;-41
2022/07/24 03:20:34;;;;;;;26.35;23.65;;;;;;;16.38;95.93;96452.44;2065345;28;20054;-41
2022/07/24 03:21:35;;;;;;;27.92;25.08;;;;;;;16.39;95.53;96449.72;2048711;29;20529;-41
2022/07/24 03:22:37;;;;;;;28.30;25.27;;;;;;;16.40;96.84;96451.41;2049386;28;20033;-39
2022/07/24 03:23:38;;;;;;;28.05;25.25;;;;;;;16.41;96.43;96453.09;2064519;28;20057;-42
2022/07/24 03:24:39;;;;;;;27.10;24.13;;;;;;;16.43;95.50;96455.59;2065023;28;20057;-40
2022/07/24 03:25:40;;;;;;;26.33;23.50;;;;;;;16.41;96.29;96449.59;2064995;28;20046;-42
2022/07/24 03:26:42;;;;;;;26.33;23.50;;;;;;;16.41;95.98;96449.59;2065194;28;20053;-41
2022/07/24 03:27:43;;;;;;;26.08;23.27;;;;;;;16.42;96.35;96454.78;2057566;28;20054;-38
2022/07/24 03:28:44;;;;;;;28.33;22.40;;;;;;;16.42;96.09;96454.78;2057638;28;20055;-42
2022/07/24 03:29:45;;;;;;;28.23;24.50;;;;;;;16.43;95.87;96455.59;2064748;28;20444;-42
2022/07/24 03:30:46;;;;;;;25.42;22.63;;;;;;;16.44;95.71;96452.03;2049162;29;20521;-42
2022/07/24 03:31:48;;;;;;;25.67;22.95;;;;;;;16.43;96.55;96452.97;2049250;28;20425;-39
2022/07/24 03:32:49;;;;;;;26.25;23.15;;;;;;;16.44;96.17;96444.16;2048804;29;20051;-41
2022/07/24 03:33:50;;;;;;;25.50;22.30;;;;;;;16.47;95.58;96454.50;2048680;29;20054;-41
2022/07/24 03:34:51;;;;;;;25.60;22.88;;;;;;;16.47;96.20;96454.50;2041157;29;20055;-41
2022/07/24 03:35:53;;;;;;;25.63;22.85;;;;;;;16.48;95.70;96451.75;2033672;29;20048;-41
2022/07/24 03:36:54;;;;;;;26.60;23.52;;;;;;;16.49;95.55;96448.22;2049631;28;20047;-42
2022/07/24 03:37:57;;;;;;;25.55;22.83;;;;;;;16.49;95.40;96449.97;2064816;28;20542;-40
2022/07/24 03:38:58;;;;;;;25.95;23.13;;;;;;;16.49;95.87;96442.97;2056954;28;20049;-41
2022/07/24 03:39:59;;;;;;;28.13;24.30;;;;;;;16.52;95.09;96444.56;2033619;29;20048;-41
2022/07/24 03:41:01;;;;;;;25.58;22.98;;;;;;;16.50;95.69;96444.63;2033537;29;20059;-43
2022/07/24 03:42:02;;;;;;;26.10;23.30;;;;;;;16.52;95.41;96441.94;2041702;29;20050;-42
2022/07/24 03:43:04;;;;;;;24.88;22.25;;;;;;;16.50;95.83;96444.63;2056979;28;20059;-40
2022/07/24 03:44:05;;;;;;;26.63;21.10;;;;;;;16.53;95.31;96439.19;2040816;29;20052;-44
2022/07/24 03:45:06;;;;;;;25.15;21.95;;;;;;;16.54;95.54;96448.75;2033661;28;20048;-41
2022/07/24 03:46:07;;;;;;;25.48;22.65;;;;;;;16.54;95.03;96443.53;2048901;29;20054;-39
2022/07/24 03:47:09;;;;;;;24.13;21.73;;;;;;;16.55;95.48;96446.97;2049144;28;20058;-39
2022/07/24 03:48:10;;;;;;;24.95;22.20;;;;;;;16.56;96.30;96439.94;2041227;29;20063;-41
2022/07/24 03:49:11;;;;;;;26.60;22.40;;;;;;;16.52;95.48;96448.00;2041150;29;20054;-44
2022/07/24 03:50:12;;;;;;;26.25;23.45;;;;;;;16.48;95.51;96445.66;2048416;28;20058;-41
2022/07/24 03:51:13;;;;;;;27.98;24.10;;;;;;;16.45;95.99;96440.63;2041258;29;20054;-43
2022/07/24 03:52:15;;;;;;;26.55;23.65;;;;;;;16.43;95.87;96442.50;2048815;28;20505;-40
2022/07/24 03:53:16;;;;;;;25.38;22.02;;;;;;;16.44;96.33;96455.53;2057239;28;20050;-41
2022/07/24 03:54:17;;;;;;;24.73;22.13;;;;;;;16.45;96.50;96451.94;2056935;28;20050;-42
2022/07/24 03:55:18;;;;;;;25.65;22.50;;;;;;;16.44;96.15;96445.03;2048967;29;20051;-42
2022/07/24 03:56:19;;;;;;;25.60;22.80;;;;;;;16.41;96.03;96449.59;2040905;29;20099;-44
2022/07/24 03:57:21;;;;;;;25.65;22.95;;;;;;;16.40;96.10;96447.94;2033745;29;20044;-40
2022/07/24 03:58:22;;;;;;;28.20;24.58;;;;;;;16.40;96.28;96447.94;2048663;28;20576;-42
2022/07/24 03:59:23;;;;;;;27.38;22.70;;;;;;;16.41;96.45;96447.84;2049082;29;20054;-42
2022/07/24 04:00:24;;;;;;;27.05;24.23;;;;;;;16.40;96.19;96448.78;2049443;28;20055;-42
2022/07/24 04:01:25;;;;;;;28.08;24.48;;;;;;;16.39;96.30;96452.34;2065221;28;20050;-42
2022/07/24 04:02:27;;;;;;;25.77;23.08;;;;;;;16.41;96.36;96457.47;2048821;29;20047;-41
2022/07/24 04:03:28;;;;;;;25.55;23.00;;;;;;;16.40;96.79;96456.63;2040791;28;20421;-42
2022/07/24 04:04:29;;;;;;;26.52;23.45;;;;;;;16.41;96.93;96460.09;2048692;28;20054;-41
2022/07/24 04:05:30;;;;;;;24.63;22.08;;;;;;;16.41;96.88;96460.09;2040617;28;20046;-41
2022/07/24 04:06:32;;;;;;;26.38;21.98;;;;;;;16.43;96.34;96466.09;2057149;28;20054;-40
2022/07/24 04:07:33;;;;;;;25.23;22.45;;;;;;;16.44;95.81;96462.53;2057490;28;20414;-40
2022/07/24 04:08:35;;;;;;;26.98;23.13;;;;;;;16.44;95.19;96459.91;2041148;29;20545;-43
2022/07/24 04:09:36;;;;;;;25.73;21.88;;;;;;;16.44;95.99;96459.91;2048658;28;20580;-44
2022/07/24 04:10:37;;;;;;;26.83;24.02;;;;;;;16.43;96.30;96458.22;2057162;28;20042;-39
2022/07/24 04:11:38;;;;;;;25.25;22.58;;;;;;;16.45;95.78;96465.06;2056436;28;20050;-41
2022/07/24 04:12:40;;;;;;;24.58;21.98;;;;;;;16.43;96.34;96469.53;2048461;29;20058;-42
2022/07/24 04:13:41;;;;;;;25.60;22.95;;;;;;;16.38;95.76;96471.63;2040797;29;20059;-40
2022/07/24 04:14:42;;;;;;;24.42;22.00;;;;;;;16.42;95.84;96467.88;2049149;28;20062;-43
2022/07/24 04:15:43;;;;;;;26.20;23.30;;;;;;;16.40;95.99;96474.16;2041233;29;20418;-41
2022/07/24 04:16:44;;;;;;;27.13;23.83;;;;;;;16.40;95.93;96477.59;2049036;28;20055;-42
2022/07/24 04:17:46;;;;;;;26.13;23.42;;;;;;;16.37;95.84;96469.94;2064459;28;20077;-42
2022/07/24 04:18:47;;;;;;;26.35;23.27;;;;;;;16.36;95.88;96470.91;2049040;28;20047;-41
2022/07/24 04:19:48;;;;;;;28.13;24.33;;;;;;;16.36;96.06;96467.41;2041082;28;20059;-37
2022/07/24 04:20:49;;;;;;;26.40;23.42;;;;;;;16.37;95.73;96472.56;2048738;28;20051;-40
2022/07/24 04:21:51;;;;;;;27.70;23.60;;;;;;;16.36;95.82;96470.91;2056618;28;20150;-43
2022/07/24 04:22:52;;;;;;;26.23;22.67;;;;;;;16.39;96.08;96472.47;2056747;28;20477;-39
2022/07/24 04:23:53;;;;;;;27.17;24.33;;;;;;;16.38;95.16;96471.63;2056800;28;20042;-40
2022/07/24 04:24:54;;;;;;;31.23;25.58;;;;;;;16.38;95.61;96469.00;2057245;28;20525;-41
2022/07/24 04:25:55;;;;;;;27.98;23.95;;;;;;;16.39;95.84;96478.56;2048791;29;20437;-41
2022/07/24 04:26:57;;;;;;;27.63;24.60;;;;;;;16.43;95.85;96481.81;2048235;29;20047;-43
2022/07/24 04:27:58;;;;;;;28.83;24.67;;;;;;;16.46;95.72;96479.84;2055995;28;20053;-39
2022/07/24 04:28:59;;;;;;;28.20;24.73;;;;;;;16.43;95.97;96474.78;2056776;28;20524;-43
2022/07/24 04:30:00;;;;;;;29.23;24.67;;;;;;;16.42;95.53;96478.34;2047333;28;20050;-41
2022/07/24 04:31:02;;;;;;;28.88;24.08;;;;;;;16.37;95.33;96480.44;2048984;29;20051;-40
2022/07/24 04:32:03;;;;;;;32.38;22.98;;;;;;;16.40;95.29;96477.59;2048505;28;20501;-41
2022/07/24 04:33:05;;;;;;;31.05;24.65;;;;;;;16.37;94.81;96474.34;2049077;28;20051;-41
2022/07/24 04:34:06;;;;;;;26.65;23.77;;;;;;;16.36;94.54;96481.38;2040685;29;20059;-41
2022/07/24 04:35:07;;;;;;;26.90;23.75;;;;;;;16.35;94.82;96482.28;2049008;28;20042;-44
2022/07/24 04:36:08;;;;;;;26.90;23.45;;;;;;;16.35;94.50;96478.84;2064997;28;20539;-38
2022/07/24 04:37:10;;;;;;;28.92;25.05;;;;;;;16.35;94.07;96482.28;2064582;28;20054;-41
2022/07/24 04:38:11;;;;;;;30.75;24.83;;;;;;;16.30;94.08;96484.34;2064884;28;20105;-40
2022/07/24 04:39:12;;;;;;;31.00;25.17;;;;;;;16.24;95.22;96482.13;2064444;28;20537;-41
2022/07/24 04:40:13;;;;;;;29.50;25.20;;;;;;;16.18;94.92;96483.34;2064382;28;20069;-44
2022/07/24 04:41:17;;;;;;;29.23;24.95;;;;;;;16.19;94.63;96481.56;2056595;28;20068;-40
2022/07/24 04:42:18;;;;;;;28.25;24.30;;;;;;;16.22;95.89;96490.06;2064444;28;20057;-42